sensor_id;sensor_type;location;lat;lon;timestamp;temperature;humidity
5476;DHT22;2760;50.000;9.194;2022-10-16T00:01:16;15.20;99.90
5476;DHT22;2760;50.000;9.194;2022-10-16T00:03:44;15.30;99.90
5476;DHT22;2760;50.000;9.194;2022-10-16T00:06:12;15.20;99.90
5476;DHT22;2760;50.000;9.194;2022-10-16T00:08:39;16.30;99.90
5476;DHT22;2760;50.000;9.194;2022-10-16T00:11:12;15.30;99.90
5476;DHT22;2760;50.000;9.194;2022-10-16T00:13:41;15.20;99.90
5476;DHT22;2760;50.000;9.194;2022-10-16T00:16:12;16.90;99.90
5476;DHT22;2760;50.000;9.194;2022-10-16T00:18:39;15.40;99.90
5476;DHT22;2760;50.000;9.194;2022-10-16T00:21:07;15.90;99.90
5476;DHT22;2760;50.000;9.194;2022-10-16T00:23:35;16.70;99.90
5476;DHT22;2760;50.000;9.194;2022-10-16T00:26:05;15.30;99.90
5476;DHT22;2760;50.000;9.194;2022-10-16T00:28:34;15.30;99.90
5476;DHT22;2760;50.000;9.194;2022-10-16T00:31:03;15.20;99.90
5476;DHT22;2760;50.000;9.194;2022-10-16T00:33:32;15.30;99.90
5476;DHT22;2760;50.000;9.194;2022-10-16T00:36:00;16.00;99.90
5476;DHT22;2760;50.000;9.194;2022-10-16T00:38:26;15.20;99.90
5476;DHT22;2760;50.000;9.194;2022-10-16T00:40:53;16.10;99.90
5476;DHT22;2760;50.000;9.194;2022-10-16T00:43:36;16.60;99.90
5476;DHT22;2760;50.000;9.194;2022-10-16T00:46:10;15.30;99.90
5476;DHT22;2760;50.000;9.194;2022-10-16T00:48:39;15.40;99.90
5476;DHT22;2760;50.000;9.194;2022-10-16T00:51:07;15.20;99.90
5476;DHT22;2760;50.000;9.194;2022-10-16T00:53:35;16.60;99.90
5476;DHT22;2760;50.000;9.194;2022-10-16T00:56:02;16.10;99.90
5476;DHT22;2760;50.000;9.194;2022-10-16T00:58:30;15.30;99.90
5476;DHT22;2760;50.000;9.194;2022-10-16T01:00:57;16.80;99.90
5476;DHT22;2760;50.000;9.194;2022-10-16T01:03:27;15.30;99.90
5476;DHT22;2760;50.000;9.194;2022-10-16T01:06:08;16.70;99.90
5476;DHT22;2760;50.000;9.194;2022-10-16T01:08:47;15.40;99.90
5476;DHT22;2760;50.000;9.194;2022-10-16T01:11:21;15.30;99.90
5476;DHT22;2760;50.000;9.194;2022-10-16T01:13:53;15.30;99.90
5476;DHT22;2760;50.000;9.194;2022-10-16T01:16:26;15.30;99.90
5476;DHT22;2760;50.000;9.194;2022-10-16T01:18:58;16.30;99.90
5476;DHT22;2760;50.000;9.194;2022-10-16T01:21:30;15.80;99.90
5476;DHT22;2760;50.000;9.194;2022-10-16T01:24:06;15.30;99.90
5476;DHT22;2760;50.000;9.194;2022-10-16T01:26:50;15.40;99.90
5476;DHT22;2760;50.000;9.194;2022-10-16T01:29:24;15.20;99.90
5476;DHT22;2760;50.000;9.194;2022-10-16T01:31:57;16.60;99.90
5476;DHT22;2760;50.000;9.194;2022-10-16T01:34:32;15.30;99.90
5476;DHT22;2760;50.000;9.194;2022-10-16T01:37:04;15.60;99.90
5476;DHT22;2760;50.000;9.194;2022-10-16T01:39:35;16.80;99.90
5476;DHT22;2760;50.000;9.194;2022-10-16T01:42:09;14.00;99.90
5476;DHT22;2760;50.000;9.194;2022-10-16T01:44:40;17.20;99.90
5476;DHT22;2760;50.000;9.194;2022-10-16T01:47:09;15.40;99.90
5476;DHT22;2760;50.000;9.194;2022-10-16T01:49:39;16.20;99.90
5476;DHT22;2760;50.000;9.194;2022-10-16T01:52:11;16.50;99.90
5476;DHT22;2760;50.000;9.194;2022-10-16T01:54:41;16.10;99.90
5476;DHT22;2760;50.000;9.194;2022-10-16T01:57:10;15.40;99.90
5476;DHT22;2760;50.000;9.194;2022-10-16T01:59:44;15.40;99.90
5476;DHT22;2760;50.000;9.194;2022-10-16T02:02:11;16.90;99.90
5476;DHT22;2760;50.000;9.194;2022-10-16T02:04:42;16.60;99.90
5476;DHT22;2760;50.000;9.194;2022-10-16T02:07:10;15.50;99.90
5476;DHT22;2760;50.000;9.194;2022-10-16T02:09:38;15.80;99.90
5476;DHT22;2760;50.000;9.194;2022-10-16T02:12:10;15.60;99.90
5476;DHT22;2760;50.000;9.194;2022-10-16T02:14:40;17.10;99.90
5476;DHT22;2760;50.000;9.194;2022-10-16T02:17:13;15.50;99.90
5476;DHT22;2760;50.000;9.194;2022-10-16T02:19:41;16.80;99.90
5476;DHT22;2760;50.000;9.194;2022-10-16T02:22:10;15.60;99.90
5476;DHT22;2760;50.000;9.194;2022-10-16T02:24:47;15.80;99.90
5476;DHT22;2760;50.000;9.194;2022-10-16T02:27:22;16.30;99.90
5476;DHT22;2760;50.000;9.194;2022-10-16T02:29:55;15.70;99.90
5476;DHT22;2760;50.000;9.194;2022-10-16T02:32:28;15.50;99.90
5476;DHT22;2760;50.000;9.194;2022-10-16T02:34:58;15.50;99.90
5476;DHT22;2760;50.000;9.194;2022-10-16T02:37:27;15.50;99.90
5476;DHT22;2760;50.000;9.194;2022-10-16T02:39:56;16.00;99.90
5476;DHT22;2760;50.000;9.194;2022-10-16T02:42:28;15.50;99.90
5476;DHT22;2760;50.000;9.194;2022-10-16T02:44:57;16.30;99.90
5476;DHT22;2760;50.000;9.194;2022-10-16T02:47:24;15.70;99.90
5476;DHT22;2760;50.000;9.194;2022-10-16T02:49:51;17.10;99.90
5476;DHT22;2760;50.000;9.194;2022-10-16T02:52:18;15.40;99.90
5476;DHT22;2760;50.000;9.194;2022-10-16T02:54:45;15.50;99.90
5476;DHT22;2760;50.000;9.194;2022-10-16T02:57:12;16.50;99.90
5476;DHT22;2760;50.000;9.194;2022-10-16T02:59:39;15.40;99.90
5476;DHT22;2760;50.000;9.194;2022-10-16T03:02:08;15.40;99.90
5476;DHT22;2760;50.000;9.194;2022-10-16T03:04:35;15.40;99.90
5476;DHT22;2760;50.000;9.194;2022-10-16T03:07:02;15.40;99.90
5476;DHT22;2760;50.000;9.194;2022-10-16T03:09:29;15.30;99.90
5476;DHT22;2760;50.000;9.194;2022-10-16T03:11:56;15.90;99.90
5476;DHT22;2760;50.000;9.194;2022-10-16T03:14:23;15.70;99.90
5476;DHT22;2760;50.000;9.194;2022-10-16T03:16:50;15.40;99.90
5476;DHT22;2760;50.000;9.194;2022-10-16T03:19:18;16.10;99.90
5476;DHT22;2760;50.000;9.194;2022-10-16T03:21:45;15.70;99.90
5476;DHT22;2760;50.000;9.194;2022-10-16T03:24:12;15.30;99.90
5476;DHT22;2760;50.000;9.194;2022-10-16T03:26:39;15.30;99.90
5476;DHT22;2760;50.000;9.194;2022-10-16T03:29:06;15.30;99.90
5476;DHT22;2760;50.000;9.194;2022-10-16T03:31:33;16.50;99.90
5476;DHT22;2760;50.000;9.194;2022-10-16T03:34:00;15.30;99.90
5476;DHT22;2760;50.000;9.194;2022-10-16T03:36:29;15.30;99.90
5476;DHT22;2760;50.000;9.194;2022-10-16T03:38:55;15.90;99.90
5476;DHT22;2760;50.000;9.194;2022-10-16T03:41:22;15.70;99.90
5476;DHT22;2760;50.000;9.194;2022-10-16T03:43:49;16.60;99.90
5476;DHT22;2760;50.000;9.194;2022-10-16T03:46:16;15.30;99.90
5476;DHT22;2760;50.000;9.194;2022-10-16T03:48:43;15.60;99.90
5476;DHT22;2760;50.000;9.194;2022-10-16T03:51:10;15.70;99.90
5476;DHT22;2760;50.000;9.194;2022-10-16T03:53:38;15.30;99.90
5476;DHT22;2760;50.000;9.194;2022-10-16T03:56:06;16.40;99.90
5476;DHT22;2760;50.000;9.194;2022-10-16T03:58:33;16.70;99.90
5476;DHT22;2760;50.000;9.194;2022-10-16T04:01:00;15.30;99.90
5476;DHT22;2760;50.000;9.194;2022-10-16T04:03:27;16.80;99.90
5476;DHT22;2760;50.000;9.194;2022-10-16T04:05:54;15.30;99.90
5476;DHT22;2760;50.000;9.194;2022-10-16T04:08:21;15.30;99.90
5476;DHT22;2760;50.000;9.194;2022-10-16T04:10:49;17.10;99.90
5476;DHT22;2760;50.000;9.194;2022-10-16T04:13:16;15.30;99.90
5476;DHT22;2760;50.000;9.194;2022-10-16T04:15:45;16.60;99.90
5476;DHT22;2760;50.000;9.194;2022-10-16T04:18:11;15.90;99.90
5476;DHT22;2760;50.000;9.194;2022-10-16T04:20:39;15.30;99.90
5476;DHT22;2760;50.000;9.194;2022-10-16T04:23:06;15.30;99.90
5476;DHT22;2760;50.000;9.194;2022-10-16T04:25:32;15.40;99.90
5476;DHT22;2760;50.000;9.194;2022-10-16T04:28:01;15.40;99.90
5476;DHT22;2760;50.000;9.194;2022-10-16T04:30:28;16.40;99.90
5476;DHT22;2760;50.000;9.194;2022-10-16T04:32:55;15.40;99.90
5476;DHT22;2760;50.000;9.194;2022-10-16T04:35:22;16.00;99.90
5476;DHT22;2760;50.000;9.194;2022-10-16T04:37:49;15.80;99.90
5476;DHT22;2760;50.000;9.194;2022-10-16T04:40:16;15.30;99.90
5476;DHT22;2760;50.000;9.194;2022-10-16T04:42:43;15.30;99.90
5476;DHT22;2760;50.000;9.194;2022-10-16T04:45:11;15.20;99.90
5476;DHT22;2760;50.000;9.194;2022-10-16T04:47:38;16.70;99.90
5476;DHT22;2760;50.000;9.194;2022-10-16T04:50:06;16.20;99.90
5476;DHT22;2760;50.000;9.194;2022-10-16T04:52:33;15.30;99.90
5476;DHT22;2760;50.000;9.194;2022-10-16T04:55:00;15.20;99.90
5476;DHT22;2760;50.000;9.194;2022-10-16T04:57:28;15.40;99.90
5476;DHT22;2760;50.000;9.194;2022-10-16T04:59:56;15.30;99.90
5476;DHT22;2760;50.000;9.194;2022-10-16T05:02:24;15.30;99.90
5476;DHT22;2760;50.000;9.194;2022-10-16T05:04:51;15.30;99.90
5476;DHT22;2760;50.000;9.194;2022-10-16T05:07:18;15.30;99.90
5476;DHT22;2760;50.000;9.194;2022-10-16T05:09:45;16.70;99.90
5476;DHT22;2760;50.000;9.194;2022-10-16T05:12:12;16.30;99.90
5476;DHT22;2760;50.000;9.194;2022-10-16T05:14:39;15.40;99.90
5476;DHT22;2760;50.000;9.194;2022-10-16T05:17:06;15.30;99.90
5476;DHT22;2760;50.000;9.194;2022-10-16T05:19:34;15.50;99.90
5476;DHT22;2760;50.000;9.194;2022-10-16T05:22:01;15.30;99.90
5476;DHT22;2760;50.000;9.194;2022-10-16T05:24:28;15.30;99.90
5476;DHT22;2760;50.000;9.194;2022-10-16T05:26:55;15.80;99.90
5476;DHT22;2760;50.000;9.194;2022-10-16T05:29:22;15.30;99.90
5476;DHT22;2760;50.000;9.194;2022-10-16T05:31:53;16.90;99.90
5476;DHT22;2760;50.000;9.194;2022-10-16T05:34:20;15.20;99.90
5476;DHT22;2760;50.000;9.194;2022-10-16T05:36:49;16.30;99.90
5476;DHT22;2760;50.000;9.194;2022-10-16T05:39:16;15.50;99.90
5476;DHT22;2760;50.000;9.194;2022-10-16T05:41:43;16.00;99.90
5476;DHT22;2760;50.000;9.194;2022-10-16T05:44:10;16.30;99.90
5476;DHT22;2760;50.000;9.194;2022-10-16T05:46:37;15.20;99.90
5476;DHT22;2760;50.000;9.194;2022-10-16T05:49:04;16.50;99.90
5476;DHT22;2760;50.000;9.194;2022-10-16T05:51:31;16.90;99.90
5476;DHT22;2760;50.000;9.194;2022-10-16T05:53:59;16.80;99.90
5476;DHT22;2760;50.000;9.194;2022-10-16T05:56:26;15.10;99.90
5476;DHT22;2760;50.000;9.194;2022-10-16T05:58:53;16.80;99.90
5476;DHT22;2760;50.000;9.194;2022-10-16T06:01:21;15.20;99.90
5476;DHT22;2760;50.000;9.194;2022-10-16T06:03:50;15.80;99.90
5476;DHT22;2760;50.000;9.194;2022-10-16T06:06:19;16.90;99.90
5476;DHT22;2760;50.000;9.194;2022-10-16T06:08:47;15.10;99.90
5476;DHT22;2760;50.000;9.194;2022-10-16T06:11:18;15.20;99.90
5476;DHT22;2760;50.000;9.194;2022-10-16T06:13:48;15.90;99.90
5476;DHT22;2760;50.000;9.194;2022-10-16T06:16:15;15.30;99.90
5476;DHT22;2760;50.000;9.194;2022-10-16T06:18:42;15.80;99.90
5476;DHT22;2760;50.000;9.194;2022-10-16T06:21:11;16.20;99.90
5476;DHT22;2760;50.000;9.194;2022-10-16T06:23:38;15.30;99.90
5476;DHT22;2760;50.000;9.194;2022-10-16T06:26:06;15.20;99.90
5476;DHT22;2760;50.000;9.194;2022-10-16T06:28:35;17.10;99.90
5476;DHT22;2760;50.000;9.194;2022-10-16T06:31:04;15.20;99.90
5476;DHT22;2760;50.000;9.194;2022-10-16T06:33:31;15.30;99.90
5476;DHT22;2760;50.000;9.194;2022-10-16T06:36:02;15.20;99.90
5476;DHT22;2760;50.000;9.194;2022-10-16T06:38:29;15.30;99.90
5476;DHT22;2760;50.000;9.194;2022-10-16T06:40:56;15.20;99.90
5476;DHT22;2760;50.000;9.194;2022-10-16T06:43:24;16.20;99.90
5476;DHT22;2760;50.000;9.194;2022-10-16T06:45:53;15.70;99.90
5476;DHT22;2760;50.000;9.194;2022-10-16T06:48:20;15.30;99.90
5476;DHT22;2760;50.000;9.194;2022-10-16T06:50:56;15.40;99.90
5476;DHT22;2760;50.000;9.194;2022-10-16T06:53:24;15.30;99.90
5476;DHT22;2760;50.000;9.194;2022-10-16T06:55:51;16.90;99.90
5476;DHT22;2760;50.000;9.194;2022-10-16T06:58:18;15.30;99.90
5476;DHT22;2760;50.000;9.194;2022-10-16T07:00:45;15.40;99.90
5476;DHT22;2760;50.000;9.194;2022-10-16T07:03:14;15.30;99.90
5476;DHT22;2760;50.000;9.194;2022-10-16T07:05:42;15.30;99.90
5476;DHT22;2760;50.000;9.194;2022-10-16T07:08:09;15.80;99.90
5476;DHT22;2760;50.000;9.194;2022-10-16T07:10:36;16.50;99.90
5476;DHT22;2760;50.000;9.194;2022-10-16T07:13:03;15.50;99.90
5476;DHT22;2760;50.000;9.194;2022-10-16T07:15:30;16.50;99.90
5476;DHT22;2760;50.000;9.194;2022-10-16T07:17:57;17.30;99.90
5476;DHT22;2760;50.000;9.194;2022-10-16T07:20:25;15.50;99.90
5476;DHT22;2760;50.000;9.194;2022-10-16T07:22:52;16.90;99.90
5476;DHT22;2760;50.000;9.194;2022-10-16T07:25:19;17.30;99.90
5476;DHT22;2760;50.000;9.194;2022-10-16T07:27:46;17.40;99.90
5476;DHT22;2760;50.000;9.194;2022-10-16T07:30:13;15.60;99.90
5476;DHT22;2760;50.000;9.194;2022-10-16T07:32:40;15.60;99.90
5476;DHT22;2760;50.000;9.194;2022-10-16T07:35:08;16.20;99.90
5476;DHT22;2760;50.000;9.194;2022-10-16T07:37:36;15.60;99.90
5476;DHT22;2760;50.000;9.194;2022-10-16T07:40:04;15.70;99.90
5476;DHT22;2760;50.000;9.194;2022-10-16T07:42:31;15.70;99.90
5476;DHT22;2760;50.000;9.194;2022-10-16T07:44:58;15.80;99.90
5476;DHT22;2760;50.000;9.194;2022-10-16T07:47:25;17.10;99.90
5476;DHT22;2760;50.000;9.194;2022-10-16T07:49:52;16.70;99.90
5476;DHT22;2760;50.000;9.194;2022-10-16T07:52:22;16.10;99.90
5476;DHT22;2760;50.000;9.194;2022-10-16T07:54:50;16.10;99.90
5476;DHT22;2760;50.000;9.194;2022-10-16T07:57:18;16.70;99.90
5476;DHT22;2760;50.000;9.194;2022-10-16T07:59:46;16.20;99.90
5476;DHT22;2760;50.000;9.194;2022-10-16T08:02:14;16.90;99.90
5476;DHT22;2760;50.000;9.194;2022-10-16T08:04:42;16.40;99.90
5476;DHT22;2760;50.000;9.194;2022-10-16T08:07:09;16.60;99.90
5476;DHT22;2760;50.000;9.194;2022-10-16T08:09:36;16.20;99.90
5476;DHT22;2760;50.000;9.194;2022-10-16T08:12:04;16.30;99.90
5476;DHT22;2760;50.000;9.194;2022-10-16T08:14:36;16.70;99.90
5476;DHT22;2760;50.000;9.194;2022-10-16T08:17:06;16.20;99.90
5476;DHT22;2760;50.000;9.194;2022-10-16T08:19:33;16.30;99.90
5476;DHT22;2760;50.000;9.194;2022-10-16T08:22:00;16.30;99.90
5476;DHT22;2760;50.000;9.194;2022-10-16T08:24:27;16.60;99.90
5476;DHT22;2760;50.000;9.194;2022-10-16T08:26:56;16.40;99.90
5476;DHT22;2760;50.000;9.194;2022-10-16T08:29:24;17.90;99.90
5476;DHT22;2760;50.000;9.194;2022-10-16T08:31:52;16.90;99.90
5476;DHT22;2760;50.000;9.194;2022-10-16T08:34:18;16.50;99.90
5476;DHT22;2760;50.000;9.194;2022-10-16T08:36:45;16.60;99.90
5476;DHT22;2760;50.000;9.194;2022-10-16T08:39:12;16.70;99.90
5476;DHT22;2760;50.000;9.194;2022-10-16T08:42:09;17.00;99.90
5476;DHT22;2760;50.000;9.194;2022-10-16T08:45:10;16.70;99.90
5476;DHT22;2760;50.000;9.194;2022-10-16T08:47:48;16.80;99.90
5476;DHT22;2760;50.000;9.194;2022-10-16T08:50:21;16.80;99.90
5476;DHT22;2760;50.000;9.194;2022-10-16T08:52:49;16.90;99.90
5476;DHT22;2760;50.000;9.194;2022-10-16T08:55:28;16.90;99.90
5476;DHT22;2760;50.000;9.194;2022-10-16T08:57:56;17.00;99.90
5476;DHT22;2760;50.000;9.194;2022-10-16T09:00:26;17.00;99.90
5476;DHT22;2760;50.000;9.194;2022-10-16T09:03:00;19.20;99.90
5476;DHT22;2760;50.000;9.194;2022-10-16T09:05:52;17.40;99.90
5476;DHT22;2760;50.000;9.194;2022-10-16T09:08:26;17.10;99.90
5476;DHT22;2760;50.000;9.194;2022-10-16T09:10:58;17.10;99.90
5476;DHT22;2760;50.000;9.194;2022-10-16T09:13:29;17.10;99.90
5476;DHT22;2760;50.000;9.194;2022-10-16T09:16:10;17.20;99.90
5476;DHT22;2760;50.000;9.194;2022-10-16T09:18:48;17.20;99.90
5476;DHT22;2760;50.000;9.194;2022-10-16T09:21:21;17.00;99.90
5476;DHT22;2760;50.000;9.194;2022-10-16T09:23:50;15.40;99.90
5476;DHT22;2760;50.000;9.194;2022-10-16T09:26:18;17.00;99.90
5476;DHT22;2760;50.000;9.194;2022-10-16T09:28:47;16.90;99.90
5476;DHT22;2760;50.000;9.194;2022-10-16T09:31:18;16.90;99.90
5476;DHT22;2760;50.000;9.194;2022-10-16T09:33:50;17.00;99.90
5476;DHT22;2760;50.000;9.194;2022-10-16T09:36:20;16.90;99.90
5476;DHT22;2760;50.000;9.194;2022-10-16T09:38:48;16.90;99.90
5476;DHT22;2760;50.000;9.194;2022-10-16T09:41:18;16.90;99.90
5476;DHT22;2760;50.000;9.194;2022-10-16T09:43:52;16.90;99.90
5476;DHT22;2760;50.000;9.194;2022-10-16T09:46:30;16.90;99.90
5476;DHT22;2760;50.000;9.194;2022-10-16T09:48:59;17.00;99.90
5476;DHT22;2760;50.000;9.194;2022-10-16T09:51:28;16.90;99.90
5476;DHT22;2760;50.000;9.194;2022-10-16T09:53:57;18.20;99.90
5476;DHT22;2760;50.000;9.194;2022-10-16T09:56:27;17.30;99.90
5476;DHT22;2760;50.000;9.194;2022-10-16T09:58:56;17.00;99.90
5476;DHT22;2760;50.000;9.194;2022-10-16T10:01:30;17.00;99.90
5476;DHT22;2760;50.000;9.194;2022-10-16T10:03:58;17.00;99.90
5476;DHT22;2760;50.000;9.194;2022-10-16T10:06:30;17.10;99.90
5476;DHT22;2760;50.000;9.194;2022-10-16T10:09:02;17.10;99.90
5476;DHT22;2760;50.000;9.194;2022-10-16T10:11:41;17.10;99.90
5476;DHT22;2760;50.000;9.194;2022-10-16T10:14:17;17.20;99.90
5476;DHT22;2760;50.000;9.194;2022-10-16T10:16:45;17.10;99.90
5476;DHT22;2760;50.000;9.194;2022-10-16T10:19:17;17.40;99.90
5476;DHT22;2760;50.000;9.194;2022-10-16T10:21:45;17.70;99.90
5476;DHT22;2760;50.000;9.194;2022-10-16T10:24:13;17.80;99.90
5476;DHT22;2760;50.000;9.194;2022-10-16T10:26:48;17.90;99.90
5476;DHT22;2760;50.000;9.194;2022-10-16T10:29:27;17.90;99.90
5476;DHT22;2760;50.000;9.194;2022-10-16T10:32:05;18.00;99.90
5476;DHT22;2760;50.000;9.194;2022-10-16T10:34:45;18.20;99.90
5476;DHT22;2760;50.000;9.194;2022-10-16T10:37:27;18.90;99.90
5476;DHT22;2760;50.000;9.194;2022-10-16T10:40:03;19.50;99.90
5476;DHT22;2760;50.000;9.194;2022-10-16T10:42:38;19.80;99.90
5476;DHT22;2760;50.000;9.194;2022-10-16T10:45:17;20.30;99.90
5476;DHT22;2760;50.000;9.194;2022-10-16T10:47:56;20.50;99.90
5476;DHT22;2760;50.000;9.194;2022-10-16T10:50:32;20.20;99.90
5476;DHT22;2760;50.000;9.194;2022-10-16T10:53:09;20.40;99.90
5476;DHT22;2760;50.000;9.194;2022-10-16T10:55:44;20.40;99.90
5476;DHT22;2760;50.000;9.194;2022-10-16T11:01:12;20.40;99.90
5476;DHT22;2760;50.000;9.194;2022-10-16T11:04:03;21.10;99.90
5476;DHT22;2760;50.000;9.194;2022-10-16T11:06:33;20.90;99.90
5476;DHT22;2760;50.000;9.194;2022-10-16T11:09:07;21.20;99.90
5476;DHT22;2760;50.000;9.194;2022-10-16T11:11:40;21.40;99.90
5476;DHT22;2760;50.000;9.194;2022-10-16T11:14:15;21.90;99.90
5476;DHT22;2760;50.000;9.194;2022-10-16T11:16:50;22.00;99.90
5476;DHT22;2760;50.000;9.194;2022-10-16T11:19:28;22.30;99.90
5476;DHT22;2760;50.000;9.194;2022-10-16T11:24:37;22.20;99.90
5476;DHT22;2760;50.000;9.194;2022-10-16T11:27:08;21.90;99.90
5476;DHT22;2760;50.000;9.194;2022-10-16T11:29:45;21.80;99.90
5476;DHT22;2760;50.000;9.194;2022-10-16T11:32:21;22.00;99.90
5476;DHT22;2760;50.000;9.194;2022-10-16T11:34:55;22.40;99.90
5476;DHT22;2760;50.000;9.194;2022-10-16T11:37:27;23.00;99.90
5476;DHT22;2760;50.000;9.194;2022-10-16T11:40:02;23.50;99.90
5476;DHT22;2760;50.000;9.194;2022-10-16T11:42:33;23.80;99.90
5476;DHT22;2760;50.000;9.194;2022-10-16T11:45:10;23.80;99.90
5476;DHT22;2760;50.000;9.194;2022-10-16T11:47:43;24.30;99.90
5476;DHT22;2760;50.000;9.194;2022-10-16T11:50:20;24.30;99.90
5476;DHT22;2760;50.000;9.194;2022-10-16T11:52:53;24.20;99.90
5476;DHT22;2760;50.000;9.194;2022-10-16T11:55:24;24.40;99.90
5476;DHT22;2760;50.000;9.194;2022-10-16T11:58:00;24.30;99.90
5476;DHT22;2760;50.000;9.194;2022-10-16T12:00:31;22.90;99.90
5476;DHT22;2760;50.000;9.194;2022-10-16T12:03:08;22.10;99.90
5476;DHT22;2760;50.000;9.194;2022-10-16T12:05:55;21.80;99.90
5476;DHT22;2760;50.000;9.194;2022-10-16T12:08:25;21.80;99.90
5476;DHT22;2760;50.000;9.194;2022-10-16T12:10:53;21.60;99.90
5476;DHT22;2760;50.000;9.194;2022-10-16T12:13:31;21.60;99.90
5476;DHT22;2760;50.000;9.194;2022-10-16T12:16:21;21.80;99.90
5476;DHT22;2760;50.000;9.194;2022-10-16T12:18:49;21.40;99.90
5476;DHT22;2760;50.000;9.194;2022-10-16T12:21:18;21.20;99.90
5476;DHT22;2760;50.000;9.194;2022-10-16T12:23:50;21.30;99.90
5476;DHT22;2760;50.000;9.194;2022-10-16T12:26:24;21.40;99.90
5476;DHT22;2760;50.000;9.194;2022-10-16T12:28:52;21.30;99.90
5476;DHT22;2760;50.000;9.194;2022-10-16T12:31:19;21.20;99.90
5476;DHT22;2760;50.000;9.194;2022-10-16T12:33:57;21.00;99.90
5476;DHT22;2760;50.000;9.194;2022-10-16T12:36:32;20.90;99.90
5476;DHT22;2760;50.000;9.194;2022-10-16T12:39:00;21.10;99.90
5476;DHT22;2760;50.000;9.194;2022-10-16T12:41:29;21.00;99.90
5476;DHT22;2760;50.000;9.194;2022-10-16T12:43:57;21.20;99.90
5476;DHT22;2760;50.000;9.194;2022-10-16T12:46:37;21.00;99.90
5476;DHT22;2760;50.000;9.194;2022-10-16T12:49:19;21.00;99.90
5476;DHT22;2760;50.000;9.194;2022-10-16T12:51:48;20.90;99.90
5476;DHT22;2760;50.000;9.194;2022-10-16T12:54:17;19.10;99.90
5476;DHT22;2760;50.000;9.194;2022-10-16T12:56:53;20.80;99.90
5476;DHT22;2760;50.000;9.194;2022-10-16T12:59:35;20.80;99.90
5476;DHT22;2760;50.000;9.194;2022-10-16T13:02:31;21.10;99.90
5476;DHT22;2760;50.000;9.194;2022-10-16T13:08:10;20.80;99.90
5476;DHT22;2760;50.000;9.194;2022-10-16T13:10:51;20.80;99.90
5476;DHT22;2760;50.000;9.194;2022-10-16T13:13:37;21.00;99.90
5476;DHT22;2760;50.000;9.194;2022-10-16T13:16:14;20.90;99.90
5476;DHT22;2760;50.000;9.194;2022-10-16T13:18:50;21.00;99.90
5476;DHT22;2760;50.000;9.194;2022-10-16T13:21:34;20.90;99.90
5476;DHT22;2760;50.000;9.194;2022-10-16T13:24:14;20.80;99.90
5476;DHT22;2760;50.000;9.194;2022-10-16T13:26:49;20.70;99.90
5476;DHT22;2760;50.000;9.194;2022-10-16T13:29:19;20.70;99.90
5476;DHT22;2760;50.000;9.194;2022-10-16T13:31:46;20.70;99.90
5476;DHT22;2760;50.000;9.194;2022-10-16T13:34:17;20.80;99.90
5476;DHT22;2760;50.000;9.194;2022-10-16T13:36:49;19.90;99.90
5476;DHT22;2760;50.000;9.194;2022-10-16T13:39:23;20.70;99.90
5476;DHT22;2760;50.000;9.194;2022-10-16T13:42:05;20.60;99.90
5476;DHT22;2760;50.000;9.194;2022-10-16T13:44:44;20.70;99.90
5476;DHT22;2760;50.000;9.194;2022-10-16T13:47:17;20.70;99.90
5476;DHT22;2760;50.000;9.194;2022-10-16T13:49:44;20.60;99.90
5476;DHT22;2760;50.000;9.194;2022-10-16T13:52:19;20.60;99.90
5476;DHT22;2760;50.000;9.194;2022-10-16T13:54:48;20.30;99.90
5476;DHT22;2760;50.000;9.194;2022-10-16T13:57:15;20.40;99.90
5476;DHT22;2760;50.000;9.194;2022-10-16T13:59:43;20.40;99.90
5476;DHT22;2760;50.000;9.194;2022-10-16T14:02:20;20.40;99.90
5476;DHT22;2760;50.000;9.194;2022-10-16T14:04:49;20.40;99.90
5476;DHT22;2760;50.000;9.194;2022-10-16T14:07:21;20.30;99.90
5476;DHT22;2760;50.000;9.194;2022-10-16T14:09:52;20.20;99.90
5476;DHT22;2760;50.000;9.194;2022-10-16T14:12:20;20.20;99.90
5476;DHT22;2760;50.000;9.194;2022-10-16T14:14:50;20.10;99.90
5476;DHT22;2760;50.000;9.194;2022-10-16T14:17:19;20.10;99.90
5476;DHT22;2760;50.000;9.194;2022-10-16T14:19:48;20.00;99.90
5476;DHT22;2760;50.000;9.194;2022-10-16T14:22:30;20.10;99.90
5476;DHT22;2760;50.000;9.194;2022-10-16T14:24:58;20.00;99.90
5476;DHT22;2760;50.000;9.194;2022-10-16T14:27:30;20.00;99.90
5476;DHT22;2760;50.000;9.194;2022-10-16T14:30:15;19.90;99.90
5476;DHT22;2760;50.000;9.194;2022-10-16T14:32:53;20.00;99.90
5476;DHT22;2760;50.000;9.194;2022-10-16T14:35:29;19.80;99.90
5476;DHT22;2760;50.000;9.194;2022-10-16T14:37:58;19.80;99.90
5476;DHT22;2760;50.000;9.194;2022-10-16T14:40:28;18.30;99.90
5476;DHT22;2760;50.000;9.194;2022-10-16T14:42:55;19.70;99.90
5476;DHT22;2760;50.000;9.194;2022-10-16T14:45:24;19.60;99.90
5476;DHT22;2760;50.000;9.194;2022-10-16T14:47:54;19.50;99.90
5476;DHT22;2760;50.000;9.194;2022-10-16T14:50:21;19.50;99.90
5476;DHT22;2760;50.000;9.194;2022-10-16T14:52:48;19.40;99.90
5476;DHT22;2760;50.000;9.194;2022-10-16T14:55:15;19.30;99.90
5476;DHT22;2760;50.000;9.194;2022-10-16T14:57:44;19.30;99.90
5476;DHT22;2760;50.000;9.194;2022-10-16T15:00:17;19.40;99.90
5476;DHT22;2760;50.000;9.194;2022-10-16T15:02:45;19.30;99.90
5476;DHT22;2760;50.000;9.194;2022-10-16T15:05:15;21.00;99.90
5476;DHT22;2760;50.000;9.194;2022-10-16T15:07:42;19.50;99.90
5476;DHT22;2760;50.000;9.194;2022-10-16T15:10:09;19.50;99.90
5476;DHT22;2760;50.000;9.194;2022-10-16T15:12:37;19.40;99.90
5476;DHT22;2760;50.000;9.194;2022-10-16T15:18:02;19.40;99.90
5476;DHT22;2760;50.000;9.194;2022-10-16T15:20:32;19.40;99.90
5476;DHT22;2760;50.000;9.194;2022-10-16T15:23:00;19.30;99.90
5476;DHT22;2760;50.000;9.194;2022-10-16T15:25:35;19.40;99.90
5476;DHT22;2760;50.000;9.194;2022-10-16T15:28:03;19.40;99.90
5476;DHT22;2760;50.000;9.194;2022-10-16T15:30:32;19.40;99.90
5476;DHT22;2760;50.000;9.194;2022-10-16T15:33:03;19.30;99.90
5476;DHT22;2760;50.000;9.194;2022-10-16T15:35:31;19.30;99.90
5476;DHT22;2760;50.000;9.194;2022-10-16T15:37:58;19.30;99.90
5476;DHT22;2760;50.000;9.194;2022-10-16T15:40:25;19.30;99.90
5476;DHT22;2760;50.000;9.194;2022-10-16T15:42:52;19.30;99.90
5476;DHT22;2760;50.000;9.194;2022-10-16T15:45:19;19.30;99.90
5476;DHT22;2760;50.000;9.194;2022-10-16T15:47:48;19.30;99.90
5476;DHT22;2760;50.000;9.194;2022-10-16T15:50:16;19.20;99.90
5476;DHT22;2760;50.000;9.194;2022-10-16T15:52:43;19.20;99.90
5476;DHT22;2760;50.000;9.194;2022-10-16T15:55:12;19.20;99.90
5476;DHT22;2760;50.000;9.194;2022-10-16T15:57:40;19.20;99.90
5476;DHT22;2760;50.000;9.194;2022-10-16T16:00:10;19.10;99.90
5476;DHT22;2760;50.000;9.194;2022-10-16T16:02:37;19.10;99.90
5476;DHT22;2760;50.000;9.194;2022-10-16T16:05:07;19.10;99.90
5476;DHT22;2760;50.000;9.194;2022-10-16T16:07:35;19.00;99.90
5476;DHT22;2760;50.000;9.194;2022-10-16T16:10:06;19.30;99.90
5476;DHT22;2760;50.000;9.194;2022-10-16T16:12:34;19.00;99.90
5476;DHT22;2760;50.000;9.194;2022-10-16T16:15:03;18.90;99.90
5476;DHT22;2760;50.000;9.194;2022-10-16T16:17:30;18.90;99.90
5476;DHT22;2760;50.000;9.194;2022-10-16T16:19:57;18.90;99.90
5476;DHT22;2760;50.000;9.194;2022-10-16T16:22:26;18.80;99.90
5476;DHT22;2760;50.000;9.194;2022-10-16T16:24:53;18.70;99.90
5476;DHT22;2760;50.000;9.194;2022-10-16T16:27:20;18.60;99.90
5476;DHT22;2760;50.000;9.194;2022-10-16T16:29:50;18.60;99.90
5476;DHT22;2760;50.000;9.194;2022-10-16T16:32:18;18.60;99.90
5476;DHT22;2760;50.000;9.194;2022-10-16T16:34:45;18.60;99.90